• Join FlightAware (Why Join?)
  • Login
  • US Flag 
04:46AM EDT


 

Airport Tracker/Info


-or-


 

Live Flight TrackerFlight Track Log ✈ GUJ242 ✈ 24-Apr-2013 ✈ VAPO / PNQ - VOBL / BLR

Flight Track Log - Related Links

Times and Time Zones

All times are in EDT time to prevent confusion due to time zone crossing. See the GUJ242 flight status page for this flight to view local times or setup timezone preferences in your user account.

Time Position Orientation Groundspeed Altitude Reporting Facility
EDT Latitude Longitude Course Direction KTS MPH feet Rate Location/Type
09:21AM 17.1354 74.9625 145° Southeast  Level Estimated
09:22AM 17.0629 75.0142 146° Southeast  Level Estimated
09:23AM 16.9904 75.0658 146° Southeast  Level Estimated
09:24AM 16.9179 75.1174 146° Southeast  Level Estimated
09:25AM 16.8454 75.1690 146° Southeast  Level Estimated
09:26AM 16.7728 75.2206 146° Southeast  Level Estimated
09:27AM 16.7003 75.2721 146° Southeast  Level Estimated
09:28AM 16.6277 75.3235 146° Southeast  Level Estimated
09:29AM 16.5551 75.3749 146° Southeast  Level Estimated
09:30AM 16.4826 75.4263 146° Southeast  Level Estimated
09:31AM 16.4100 75.4777 146° Southeast  Level Estimated
09:32AM 16.3374 75.5290 146° Southeast  Level Estimated
09:33AM 16.2647 75.5803 146° Southeast  Level Estimated
09:34AM 16.1921 75.6315 146° Southeast  Level Estimated
09:35AM 16.1195 75.6827 146° Southeast  Level Estimated
09:36AM 16.0468 75.7338 146° Southeast  Level Estimated
09:37AM 15.9741 75.7850 146° Southeast  Level Estimated
09:38AM 15.9015 75.8361 146° Southeast  Level Estimated
09:39AM 15.8288 75.8871 146° Southeast  Level Estimated
09:40AM 15.7561 75.9381 146° Southeast  Level Estimated
09:41AM 15.6833 75.9891 146° Southeast  Level Estimated
09:42AM 15.6106 76.0400 146° Southeast  Level Estimated
09:43AM 15.5379 76.0909 146° Southeast  Level Estimated
09:44AM 15.4651 76.1418 146° Southeast  Level Estimated
09:45AM 15.3924 76.1926 146° Southeast  Level Estimated
09:46AM 15.3196 76.2434 146° Southeast  Level Estimated
09:47AM 15.2468 76.2942 146° Southeast  Level Estimated
09:48AM 15.1740 76.3449 146° Southeast  Level Estimated
09:49AM 15.1012 76.3956 146° Southeast  Level Estimated
09:50AM 15.0284 76.4462 146° Southeast  Level Estimated
09:51AM 14.9555 76.4968 146° Southeast  Level Estimated
09:52AM 14.8827 76.5474 146° Southeast  Level Estimated
09:53AM 14.8098 76.5980 146° Southeast  Level Estimated
09:54AM 14.7370 76.6485 146° Southeast  Level Estimated
09:55AM 14.6641 76.6990 146° Southeast  Level Estimated
09:56AM 14.5912 76.7494 146° Southeast  Level Estimated
09:57AM 14.5183 76.7998 146° Southeast  Level Estimated
09:58AM 14.4454 76.8502 146° Southeast  Level Estimated
09:59AM 14.3725 76.9006 146° Southeast  Level Estimated
10:00AM 14.2995 76.9509 146° Southeast  Level Estimated
10:01AM 14.2266 77.0012 146° Southeast  Level Estimated
10:02AM 14.1537 77.0514 146° Southeast  Level Estimated
10:03AM 14.0807 77.1016 146° Southeast  Level Estimated
10:04AM 14.0077 77.1518 146° Southeast  Level Estimated
10:05AM 13.9347 77.2020 146° Southeast  Level Estimated
10:06AM 13.8617 77.2521 146° Southeast  Level Estimated
10:07AM 13.7887 77.3022 146° Southeast  Level Estimated
10:08AM 13.7157 77.3523 146° Southeast  Level Estimated
10:09AM 13.6427 77.4023 146° Southeast  Level Estimated
10:10AM 13.5697 77.4523 146° Southeast  Level Estimated
10:11AM 13.4966 77.5023 146° Southeast  Level Estimated
10:12AM 13.4236 77.5522 146° Southeast  Level Estimated
10:13AM 13.3505 77.6021 146° Southeast  Level Estimated
10:14AM 13.2775 77.6520 146° Southeast  Level Estimated
10:15AM 13.2044 77.7018 146° Southeast  Level Estimated
10:16AM 13.1989 77.7056 146° Southeast  Level Estimated
10:17AM 13.1989 77.7056 256° West  Level Estimated
10:18AM 13.1989 77.7056 256° West  Level Estimated
10:19AM 13.1989 77.7056 256° West  Level Estimated
10:20AM 13.1989 77.7056 256° West  Level Estimated
10:21AM 13.1989 77.7056 256° West  Level Estimated
10:22AM 13.1989 77.7056 256° West  Level Estimated
10:23AM 13.1989 77.7056 256° West  Level Estimated
10:24AM 13.1989 77.7056 256° West  Level Estimated
10:25AM 13.1989 77.7056 256° West  Level Estimated
10:26AM 13.1989 77.7056 256° West  Level Estimated
10:27AM 13.1989 77.7056 256° West  Level Estimated
10:28AM 13.1989 77.7056 256° West  Level Estimated
10:29AM 13.1989 77.7056 256° West  Level Estimated
10:30AM 13.1989 77.7056 256° West  Level Estimated
10:31AM 13.1989 77.7056 256° West  Level Estimated